Time;durP1;ratioP1;P1;durP2;ratioP2;P2;SDS_P1;SDS_P2;PMS_P1;PMS_P2;Temp;Humidity;BMP_temperature;BMP_pressure;BME280_temperature;BME280_humidity;BME280_pressure;Samples;Min_cycle;Max_cycle;Signal;HPM_P1;HPM_P2
2021/01/04 00:01:48;;;;;;;18.75;13.82;;;3.60;99.90;;;;;;5025016;28;20268;-71
2021/01/04 00:05:02;;;;;;;19.80;13.55;;;3.60;99.90;;;;;;5025490;28;20920;-71
2021/01/04 00:08:21;;;;;;;18.67;14.07;;;3.60;99.90;;;;;;5026926;28;20213;-71
2021/01/04 00:11:42;;;;;;;23.75;14.77;;;3.60;99.90;;;;;;5023674;28;20245;-70
2021/01/04 00:14:46;;;;;;;21.05;15.73;;;3.60;99.90;;;;;;5024488;28;20775;-72
2021/01/04 00:17:55;;;;;;;19.25;14.75;;;3.60;99.90;;;;;;5022886;28;20205;-72
2021/01/04 00:20:49;;;;;;;19.05;14.10;;;3.60;99.90;;;;;;5022952;28;20265;-72
2021/01/04 00:23:43;;;;;;;21.52;15.05;;;3.70;99.90;;;;;;5029347;28;20474;-72
2021/01/04 00:26:36;;;;;;;19.73;13.82;;;3.80;99.90;;;;;;5028976;28;20224;-71
2021/01/04 00:29:21;;;;;;;22.67;15.32;;;3.80;99.90;;;;;;5021721;28;20313;-71
2021/01/04 00:32:23;;;;;;;19.20;14.70;;;3.80;99.90;;;;;;5023434;28;20305;-70
2021/01/04 00:35:13;;;;;;;19.58;14.35;;;3.80;99.90;;;;;;5024535;28;20201;-72
2021/01/04 00:38:46;;;;;;;18.95;14.07;;;3.80;99.90;;;;;;5028471;28;20436;-72
2021/01/04 00:41:44;;;;;;;23.40;14.85;;;3.90;99.90;;;;;;4979335;28;20581;-72
2021/01/04 00:44:43;;;;;;;18.58;13.40;;;3.90;99.90;;;;;;5025447;28;20893;-72
2021/01/04 00:47:39;;;;;;;23.15;16.80;;;4.00;99.90;;;;;;5020690;28;20213;-72
2021/01/04 00:50:37;;;;;;;20.30;15.48;;;4.00;99.90;;;;;;5026756;28;20266;-72
2021/01/04 00:53:29;;;;;;;17.15;12.65;;;3.90;99.90;;;;;;5022405;28;20205;-71
2021/01/04 00:56:43;;;;;;;18.40;13.60;;;3.80;99.90;;;;;;5022696;28;20293;-72
2021/01/04 00:59:47;;;;;;;17.52;13.13;;;3.80;99.90;;;;;;5022279;28;20228;-72
2021/01/04 01:03:07;;;;;;;20.65;14.88;;;3.70;99.90;;;;;;5025488;28;20201;-71
2021/01/04 01:06:02;;;;;;;21.55;14.82;;;3.70;99.90;;;;;;5026147;28;20324;-72
2021/01/04 01:08:50;;;;;;;18.92;13.88;;;3.70;99.90;;;;;;5020046;28;20226;-70
2021/01/04 01:11:54;;;;;;;17.02;13.23;;;3.70;99.90;;;;;;5028830;28;20272;-72
2021/01/04 01:14:45;;;;;;;20.70;14.30;;;3.70;99.90;;;;;;5019137;28;20244;-72
2021/01/04 01:18:12;;;;;;;17.92;13.73;;;3.80;99.90;;;;;;5022485;28;20803;-73
2021/01/04 01:21:03;;;;;;;18.98;14.27;;;3.90;99.90;;;;;;5024312;28;20277;-71
2021/01/04 01:23:49;;;;;;;17.80;14.18;;;3.80;99.90;;;;;;5022023;28;20285;-70
2021/01/04 01:27:09;;;;;;;18.67;14.18;;;3.90;99.90;;;;;;5023187;28;20304;-70
2021/01/04 01:30:17;;;;;;;19.48;14.43;;;3.80;99.90;;;;;;5021303;28;20284;-72
2021/01/04 01:33:22;;;;;;;20.05;14.93;;;3.90;99.90;;;;;;5025139;28;20305;-72
2021/01/04 01:36:16;;;;;;;19.67;14.30;;;3.90;99.90;;;;;;5020273;28;20197;-71
2021/01/04 01:39:47;;;;;;;21.38;15.40;;;3.90;99.90;;;;;;5023199;28;20249;-72
2021/01/04 01:43:19;;;;;;;19.75;15.10;;;3.90;99.90;;;;;;5020257;28;20212;-72
2021/01/04 01:46:11;;;;;;;19.67;15.27;;;3.90;99.90;;;;;;5018332;28;20709;-70
2021/01/04 01:49:08;;;;;;;21.05;14.90;;;4.00;99.90;;;;;;5015883;28;20298;-72
2021/01/04 01:52:10;;;;;;;16.80;14.25;;;4.00;99.90;;;;;;5022967;28;20228;-71
2021/01/04 01:55:15;;;;;;;16.70;13.57;;;4.00;99.90;;;;;;5018060;28;20284;-72
2021/01/04 01:58:45;;;;;;;18.05;13.48;;;3.90;99.90;;;;;;5023453;28;20205;-72
2021/01/04 02:01:39;;;;;;;19.88;14.75;;;3.80;99.90;;;;;;5025952;28;20275;-72
2021/01/04 02:04:35;;;;;;;20.30;14.38;;;3.60;99.90;;;;;;5021976;28;20569;-72
2021/01/04 02:07:31;;;;;;;19.67;13.90;;;3.60;99.90;;;;;;5023502;28;20295;-71
2021/01/04 02:10:19;;;;;;;19.75;13.73;;;3.70;99.90;;;;;;5019271;28;20585;-73
2021/01/04 02:13:11;;;;;;;17.40;13.82;;;3.60;99.90;;;;;;5029034;28;20206;-72
2021/01/04 02:16:00;;;;;;;17.70;14.18;;;3.60;99.90;;;;;;5021586;28;20225;-72
2021/01/04 02:18:52;;;;;;;19.65;14.63;;;3.60;99.90;;;;;;5019762;28;20747;-71
2021/01/04 02:22:39;;;;;;;20.15;13.80;;;3.70;99.90;;;;;;5019330;28;20241;-72
2021/01/04 02:25:30;;;;;;;22.83;15.57;;;3.70;99.90;;;;;;5014375;28;20217;-70
2021/01/04 02:28:20;;;;;;;19.45;14.07;;;3.80;99.90;;;;;;5023710;28;20651;-72
2021/01/04 02:31:05;;;;;;;18.80;13.60;;;3.70;99.90;;;;;;5022338;28;20333;-72
2021/01/04 02:33:52;;;;;;;17.00;13.38;;;3.60;99.90;;;;;;5013600;28;20233;-71
2021/01/04 02:36:41;;;;;;;18.17;13.43;;;3.50;99.90;;;;;;5022837;28;20196;-72
2021/01/04 02:39:33;;;;;;;19.85;14.05;;;3.50;99.90;;;;;;5025500;28;20217;-72
2021/01/04 02:42:24;;;;;;;17.95;13.40;;;3.50;99.90;;;;;;5022211;28;20316;-70
2021/01/04 02:45:14;;;;;;;18.00;13.70;;;3.40;99.90;;;;;;5020325;28;20225;-71
2021/01/04 02:48:20;;;;;;;20.85;14.15;;;3.50;99.90;;;;;;5017300;28;20209;-71
2021/01/04 02:51:11;;;;;;;17.33;13.57;;;3.40;99.90;;;;;;5024495;28;20292;-71
2021/01/04 02:54:07;;;;;;;17.00;14.05;;;3.40;99.90;;;;;;5021465;28;20237;-73
2021/01/04 02:57:03;;;;;;;17.08;13.35;;;3.60;99.90;;;;;;5017679;28;20685;-72
2021/01/04 02:59:55;;;;;;;18.05;13.63;;;3.50;99.90;;;;;;5022093;28;20256;-72
2021/01/04 03:02:46;;;;;;;21.63;14.73;;;3.40;99.90;;;;;;5022678;28;20241;-73
2021/01/04 03:05:31;;;;;;;23.23;16.08;;;3.30;99.90;;;;;;5021082;28;20224;-70
2021/01/04 03:08:16;;;;;;;19.77;14.68;;;3.40;99.90;;;;;;5023728;28;20225;-73
2021/01/04 03:11:01;;;;;;;18.17;13.98;;;3.50;99.90;;;;;;5024464;28;20228;-71
2021/01/04 03:13:54;;;;;;;17.38;13.25;;;3.50;99.90;;;;;;5018717;28;20783;-72
2021/01/04 03:16:46;;;;;;;17.92;13.68;;;3.50;99.90;;;;;;5022708;28;20268;-72
2021/01/04 03:19:35;;;;;;;18.67;14.38;;;3.50;99.90;;;;;;5024935;28;20689;-72
2021/01/04 03:22:20;;;;;;;18.67;14.05;;;3.50;99.90;;;;;;5017099;28;20639;-71
2021/01/04 03:25:15;;;;;;;17.63;13.80;;;3.40;99.90;;;;;;5021580;28;20221;-71
2021/01/04 03:28:02;;;;;;;16.95;13.00;;;3.50;99.90;;;;;;5024372;28;20272;-72
2021/01/04 03:30:48;;;;;;;18.17;12.68;;;3.60;99.90;;;;;;5026063;28;20225;-73
2021/01/04 03:33:34;;;;;;;18.17;14.02;;;3.60;99.90;;;;;;5021996;28;20267;-72
2021/01/04 03:36:19;;;;;;;19.90;14.43;;;3.70;99.90;;;;;;5019059;28;20236;-71
2021/01/04 03:39:05;;;;;;;19.60;14.10;;;3.80;99.90;;;;;;5022282;28;20669;-71
2021/01/04 03:41:50;;;;;;;17.17;13.07;;;3.80;99.90;;;;;;5023924;28;20234;-71
2021/01/04 03:44:35;;;;;;;16.30;12.90;;;3.80;99.90;;;;;;5026444;28;20283;-72
2021/01/04 03:47:20;;;;;;;15.95;11.43;;;3.60;99.90;;;;;;5027811;28;20205;-71
2021/01/04 03:50:08;;;;;;;17.73;12.20;;;3.60;99.90;;;;;;5021149;28;20793;-72
2021/01/04 03:52:53;;;;;;;20.42;13.40;;;3.60;99.90;;;;;;5020718;28;20696;-72
2021/01/04 03:55:39;;;;;;;16.80;12.70;;;3.50;99.90;;;;;;5028032;28;20236;-72
2021/01/04 03:58:25;;;;;;;15.52;12.13;;;3.50;99.90;;;;;;5028863;28;20209;-72
2021/01/04 04:01:10;;;;;;;17.50;13.23;;;3.50;99.90;;;;;;5024550;28;20226;-72
2021/01/04 04:03:55;;;;;;;18.42;13.20;;;3.50;99.90;;;;;;5025727;28;20236;-71
2021/01/04 04:06:41;;;;;;;17.60;13.30;;;3.50;99.90;;;;;;5016749;28;20294;-72
2021/01/04 04:09:26;;;;;;;17.02;13.88;;;3.60;99.90;;;;;;5028543;28;20507;-72
2021/01/04 04:12:11;;;;;;;18.80;13.30;;;3.60;99.90;;;;;;5027174;28;20201;-72
2021/01/04 04:14:57;;;;;;;17.83;12.43;;;3.70;99.90;;;;;;5022857;28;20706;-72
2021/01/04 04:17:42;;;;;;;21.25;13.25;;;3.70;99.90;;;;;;5020837;28;20596;-71
2021/01/04 04:20:28;;;;;;;18.50;13.00;;;3.70;99.90;;;;;;5017635;28;20225;-72
2021/01/04 04:23:14;;;;;;;17.67;12.18;;;3.70;99.90;;;;;;5026243;28;20240;-72
2021/01/04 04:25:59;;;;;;;19.27;13.02;;;3.60;99.90;;;;;;5024046;28;20225;-70
2021/01/04 04:28:44;;;;;;;13.35;10.82;;;3.50;99.90;;;;;;5019442;28;20205;-72
2021/01/04 04:31:29;;;;;;;17.10;12.25;;;3.50;99.90;;;;;;5025883;28;20220;-68
2021/01/04 04:34:15;;;;;;;19.05;13.07;;;3.50;99.90;;;;;;5025128;28;20201;-72
2021/01/04 04:37:00;;;;;;;14.70;12.10;;;3.50;99.90;;;;;;5028981;28;20623;-70
2021/01/04 04:39:46;;;;;;;20.23;13.25;;;3.50;99.90;;;;;;5029571;28;20208;-70
2021/01/04 04:42:31;;;;;;;16.63;12.15;;;3.60;99.90;;;;;;5029680;28;20627;-72
2021/01/04 04:45:18;;;;;;;16.92;12.23;;;3.60;99.90;;;;;;5020022;28;20225;-71
2021/01/04 04:48:28;;;;;;;15.70;11.93;;;3.70;99.90;;;;;;5027958;28;20292;-71
2021/01/04 04:51:48;;;;;;;15.45;11.73;;;3.70;99.90;;;;;;5026268;28;20225;-70
2021/01/04 04:54:55;;;;;;;53.22;12.48;;;3.70;99.90;;;;;;4987631;28;20627;-72
2021/01/04 04:58:06;;;;;;;15.00;11.05;;;3.70;99.90;;;;;;5022289;28;20201;-71
2021/01/04 05:01:03;;;;;;;16.10;12.32;;;3.70;99.90;;;;;;5019598;28;20340;-72
2021/01/04 05:04:20;;;;;;;16.20;11.75;;;3.60;99.90;;;;;;5027222;28;20662;-72
2021/01/04 05:07:15;;;;;;;12.95;10.10;;;3.60;99.90;;;;;;5022383;28;20716;-70
2021/01/04 05:10:04;;;;;;;12.75;10.57;;;3.50;99.90;;;;;;5017862;28;20272;-72
2021/01/04 05:13:01;;;;;;;16.90;12.27;;;3.40;99.90;;;;;;5016564;28;20206;-70
2021/01/04 05:15:54;;;;;;;15.50;11.63;;;3.30;99.90;;;;;;5023530;28;20680;-72
2021/01/04 05:19:22;;;;;;;17.08;12.32;;;3.20;99.90;;;;;;5022902;28;20971;-71
2021/01/04 05:22:48;;;;;;;15.55;10.20;;;3.20;99.90;;;;;;5022307;28;20204;-70
2021/01/04 05:25:52;;;;;;;15.00;11.45;;;3.30;99.90;;;;;;5019401;28;20220;-72
2021/01/04 05:29:02;;;;;;;17.45;12.20;;;3.30;99.90;;;;;;5022443;28;20221;-71
2021/01/04 05:31:59;;;;;;;17.40;11.30;;;3.30;99.90;;;;;;5020891;28;20234;-71
2021/01/04 05:34:48;;;;;;;15.75;11.55;;;3.50;99.90;;;;;;5017643;28;20618;-71
2021/01/04 05:37:49;;;;;;;15.55;11.10;;;3.50;99.90;;;;;;5025487;28;20569;-72
2021/01/04 05:41:04;;;;;;;16.15;11.85;;;3.50;99.90;;;;;;5018123;28;20832;-71
2021/01/04 05:44:03;;;;;;;16.63;11.77;;;3.50;99.90;;;;;;5019859;28;20244;-70
2021/01/04 05:46:55;;;;;;;16.75;12.65;;;3.50;99.90;;;;;;5020196;28;20254;-71
2021/01/04 05:49:46;;;;;;;16.88;10.77;;;3.60;99.90;;;;;;5021890;28;20743;-72
2021/01/04 05:52:32;;;;;;;17.42;12.85;;;3.50;99.90;;;;;;5019620;28;20209;-72
2021/01/04 05:55:17;;;;;;;16.23;11.95;;;3.50;99.90;;;;;;5023477;28;20193;-73
2021/01/04 05:58:15;;;;;;;15.23;10.98;;;3.50;99.90;;;;;;5025374;28;20225;-71
2021/01/04 06:01:11;;;;;;;16.30;10.88;;;3.40;99.90;;;;;;5025650;28;20233;-72
2021/01/04 06:04:00;;;;;;;17.38;10.95;;;3.40;99.90;;;;;;5018131;28;20448;-71
2021/01/04 06:06:54;;;;;;;15.13;11.38;;;3.40;99.90;;;;;;5015767;28;20687;-71
2021/01/04 06:09:39;;;;;;;17.60;11.30;;;3.40;99.90;;;;;;5028704;28;20257;-72
2021/01/04 06:12:34;;;;;;;14.95;10.20;;;3.40;99.90;;;;;;5024463;28;20205;-71
2021/01/04 06:15:28;;;;;;;19.13;10.88;;;3.40;99.90;;;;;;5023914;28;20217;-72
2021/01/04 06:18:24;;;;;;;14.07;10.40;;;3.40;99.90;;;;;;5022501;28;20973;-71
2021/01/04 06:21:43;;;;;;;12.52;10.57;;;3.40;99.90;;;;;;5026260;28;20225;-73
2021/01/04 06:24:31;;;;;;;13.85;11.02;;;3.30;99.90;;;;;;5022950;28;20648;-72
2021/01/04 06:27:29;;;;;;;15.57;11.38;;;3.30;99.90;;;;;;5019705;28;20209;-71
2021/01/04 06:30:22;;;;;;;16.60;11.07;;;3.30;99.90;;;;;;5023359;28;20275;-72
2021/01/04 06:33:13;;;;;;;15.10;11.05;;;3.30;99.90;;;;;;5017750;28;20205;-72
2021/01/04 06:36:05;;;;;;;16.60;11.27;;;3.30;99.90;;;;;;5021415;28;20280;-72
2021/01/04 06:38:51;;;;;;;14.10;10.98;;;3.30;99.90;;;;;;5021154;28;20204;-71
2021/01/04 06:41:36;;;;;;;13.27;11.43;;;3.30;99.90;;;;;;5018509;28;20221;-71
2021/01/04 06:44:25;;;;;;;15.95;11.18;;;3.30;99.90;;;;;;5020209;28;20985;-72
2021/01/04 06:47:29;;;;;;;15.82;11.45;;;3.40;99.90;;;;;;5022163;28;20221;-74
2021/01/04 06:50:21;;;;;;;16.13;11.90;;;3.40;99.90;;;;;;5023737;28;20268;-71
2021/01/04 06:53:36;;;;;;;15.20;11.32;;;3.20;99.90;;;;;;5022735;28;20798;-72
2021/01/04 06:56:52;;;;;;;17.48;10.68;;;3.30;99.90;;;;;;5018621;28;20609;-72
2021/01/04 07:00:09;;;;;;;13.60;10.45;;;3.40;99.90;;;;;;5022821;28;20201;-71
2021/01/04 07:03:28;;;;;;;20.42;11.80;;;3.30;99.90;;;;;;5019330;28;20290;-70
2021/01/04 07:06:47;;;;;;;16.33;11.45;;;3.50;99.90;;;;;;5023262;28;20253;-71
2021/01/04 07:10:07;;;;;;;19.52;11.40;;;3.40;99.90;;;;;;5023559;28;20619;-72
2021/01/04 07:13:26;;;;;;;15.85;11.73;;;3.40;99.90;;;;;;5022163;28;20565;-72
2021/01/04 07:16:39;;;;;;;15.20;10.70;;;3.30;99.90;;;;;;5021813;28;20209;-71
2021/01/04 07:19:43;;;;;;;20.00;12.80;;;3.30;99.90;;;;;;5027543;28;20213;-72
2021/01/04 07:22:40;;;;;;;16.73;12.90;;;3.30;99.90;;;;;;5020090;28;20221;-71
2021/01/04 07:25:37;;;;;;;14.00;10.48;;;3.40;99.90;;;;;;5024248;28;20791;-71
2021/01/04 07:28:41;;;;;;;16.55;11.20;;;3.50;99.90;;;;;;5028771;28;20738;-72
2021/01/04 07:31:32;;;;;;;19.42;12.98;;;3.50;99.90;;;;;;5028162;28;20244;-71
2021/01/04 07:34:23;;;;;;;21.40;14.02;;;3.50;99.90;;;;;;5024982;28;20205;-72
2021/01/04 07:37:27;;;;;;;17.67;13.07;;;3.40;99.90;;;;;;5024360;28;20208;-71
2021/01/04 07:40:44;;;;;;;19.00;11.95;;;3.50;99.90;;;;;;5027678;28;20237;-72
2021/01/04 07:44:15;;;;;;;17.02;13.00;;;3.50;99.90;;;;;;5027727;28;20202;-72
2021/01/04 07:47:39;;;;;;;16.55;11.65;;;3.50;99.90;;;;;;5023622;28;20291;-72
2021/01/04 07:51:10;;;;;;;19.15;12.63;;;3.60;99.90;;;;;;5025196;28;20748;-70
2021/01/04 07:54:31;;;;;;;22.90;13.77;;;3.50;99.90;;;;;;5005679;28;20631;-69
2021/01/04 07:57:48;;;;;;;20.20;13.70;;;3.50;99.90;;;;;;5028124;28;20252;-71
2021/01/04 08:01:06;;;;;;;23.33;12.60;;;3.50;99.90;;;;;;5025980;28;20439;-71
2021/01/04 08:04:16;;;;;;;24.20;12.75;;;3.50;99.90;;;;;;5020618;28;20248;-69
2021/01/04 08:07:19;;;;;;;29.33;15.95;;;3.60;99.90;;;;;;5025678;28;20285;-71
2021/01/04 08:10:49;;;;;;;28.73;16.33;;;3.60;99.90;;;;;;5026257;28;20248;-72
2021/01/04 08:14:13;;;;;;;28.85;15.05;;;3.60;99.90;;;;;;5013079;28;20694;-69
2021/01/04 08:17:05;;;;;;;31.50;16.05;;;3.60;99.90;;;;;;5022543;28;20237;-71
2021/01/04 08:19:54;;;;;;;31.52;17.35;;;3.60;99.90;;;;;;5024294;28;20209;-71
2021/01/04 08:22:53;;;;;;;24.17;14.75;;;3.70;99.90;;;;;;5021434;28;20205;-72
2021/01/04 08:25:47;;;;;;;27.63;15.77;;;3.70;99.90;;;;;;5014997;28;21639;-70
2021/01/04 08:28:41;;;;;;;26.35;15.23;;;3.60;99.90;;;;;;5025109;28;20264;-70
2021/01/04 08:31:34;;;;;;;22.17;13.70;;;3.70;99.90;;;;;;5025801;28;21085;-71
2021/01/04 08:34:23;;;;;;;24.88;15.10;;;3.70;99.90;;;;;;5027476;28;20229;-72
2021/01/04 08:37:08;;;;;;;23.23;13.85;;;3.70;99.90;;;;;;5026186;28;20234;-72
2021/01/04 08:39:53;;;;;;;24.40;13.82;;;3.60;99.90;;;;;;5026571;28;20376;-71
2021/01/04 08:42:39;;;;;;;25.30;15.95;;;3.60;99.90;;;;;;5024897;28;20230;-70
2021/01/04 08:45:31;;;;;;;23.40;14.52;;;3.60;99.90;;;;;;5024324;28;20845;-71
2021/01/04 08:48:18;;;;;;;24.20;13.38;;;3.80;99.90;;;;;;5027123;28;20293;-72
2021/01/04 08:51:07;;;;;;;22.10;14.05;;;3.80;99.90;;;;;;5028291;28;20229;-72
2021/01/04 08:53:55;;;;;;;23.05;13.43;;;3.90;99.90;;;;;;5022416;28;20194;-71
2021/01/04 08:56:44;;;;;;;24.02;12.77;;;4.00;99.90;;;;;;5024822;28;20241;-70
2021/01/04 08:59:32;;;;;;;23.45;14.25;;;4.00;99.90;;;;;;5021993;28;20212;-72
2021/01/04 09:02:32;;;;;;;22.60;13.48;;;4.00;99.90;;;;;;5028832;28;20240;-72
2021/01/04 09:05:30;;;;;;;24.63;14.35;;;3.90;99.90;;;;;;5024710;28;20284;-71
2021/01/04 09:08:28;;;;;;;22.50;14.40;;;3.90;99.90;;;;;;5022216;28;20249;-70
2021/01/04 09:11:13;;;;;;;23.00;13.25;;;4.00;99.90;;;;;;5022781;28;20251;-70
2021/01/04 09:13:58;;;;;;;24.40;15.05;;;4.00;99.90;;;;;;5020193;28;20237;-71
2021/01/04 09:16:45;;;;;;;23.90;14.02;;;4.00;99.90;;;;;;5023778;28;20289;-71
2021/01/04 09:19:37;;;;;;;25.92;15.32;;;4.00;99.90;;;;;;5023589;28;20734;-71
2021/01/04 09:22:23;;;;;;;27.42;17.00;;;4.00;99.90;;;;;;5019021;28;20236;-73
2021/01/04 09:25:21;;;;;;;29.58;15.38;;;4.00;99.90;;;;;;5024781;28;20256;-71
2021/01/04 09:28:07;;;;;;;29.40;15.55;;;4.00;99.90;;;;;;5025391;28;20213;-69
2021/01/04 09:30:53;;;;;;;26.88;16.35;;;4.10;99.90;;;;;;5016836;28;20242;-69
2021/01/04 09:33:47;;;;;;;28.35;14.70;;;4.20;99.90;;;;;;5023786;28;20244;-71
2021/01/04 09:36:33;;;;;;;22.52;13.18;;;4.30;99.90;;;;;;5024204;28;20205;-71
2021/01/04 09:39:26;;;;;;;24.60;14.68;;;4.30;99.90;;;;;;5023965;28;20205;-71
2021/01/04 09:42:23;;;;;;;29.33;14.88;;;4.20;99.90;;;;;;5030090;28;20197;-71
2021/01/04 09:45:15;;;;;;;26.23;15.50;;;4.20;99.90;;;;;;5025193;28;20206;-70
2021/01/04 09:48:03;;;;;;;22.95;15.10;;;4.30;99.90;;;;;;5024100;28;20310;-72
2021/01/04 09:50:55;;;;;;;23.02;15.20;;;4.30;99.90;;;;;;5023575;28;20392;-69
2021/01/04 09:53:43;;;;;;;34.45;17.05;;;4.40;99.90;;;;;;5021371;28;20483;-72
2021/01/04 09:56:31;;;;;;;27.13;15.88;;;4.50;99.90;;;;;;5026336;28;20621;-71
2021/01/04 09:59:21;;;;;;;26.00;15.90;;;4.40;99.90;;;;;;5022317;28;20217;-71
2021/01/04 10:02:09;;;;;;;30.95;17.67;;;4.40;99.90;;;;;;5024492;28;20220;-71
2021/01/04 10:05:03;;;;;;;30.15;17.73;;;4.40;99.90;;;;;;5020413;28;20205;-72
2021/01/04 10:07:48;;;;;;;31.88;16.63;;;4.40;99.90;;;;;;5023293;28;20328;-72
2021/01/04 10:10:33;;;;;;;31.58;18.42;;;4.30;99.90;;;;;;5023687;28;20240;-71
2021/01/04 10:13:22;;;;;;;29.48;15.65;;;4.30;99.90;;;;;;5021622;28;20272;-72
2021/01/04 10:16:13;;;;;;;29.40;16.70;;;4.30;99.90;;;;;;5018628;28;20221;-71
2021/01/04 10:19:05;;;;;;;31.52;14.40;;;4.40;99.90;;;;;;5016665;28;20264;-71
2021/01/04 10:21:58;;;;;;;26.88;15.27;;;4.30;99.90;;;;;;5019820;28;20237;-72
2021/01/04 10:24:53;;;;;;;29.48;16.20;;;4.20;99.90;;;;;;5021480;28;20212;-72
2021/01/04 10:27:38;;;;;;;28.20;16.00;;;4.30;99.90;;;;;;5017773;28;20268;-71
2021/01/04 10:30:25;;;;;;;25.52;15.15;;;4.40;99.90;;;;;;5021136;28;20291;-70
2021/01/04 10:33:27;;;;;;;23.25;13.95;;;4.40;99.90;;;;;;5019888;28;20264;-73
2021/01/04 10:36:20;;;;;;;28.50;14.57;;;4.40;99.90;;;;;;5025530;28;20248;-73
2021/01/04 10:39:13;;;;;;;35.95;16.30;;;4.40;99.90;;;;;;5021751;28;20322;-73
2021/01/04 10:42:07;;;;;;;26.25;14.93;;;4.40;99.90;;;;;;5025918;28;20281;-73
2021/01/04 10:45:02;;;;;;;27.90;15.27;;;4.40;99.90;;;;;;5024283;28;20206;-74
2021/01/04 10:47:54;;;;;;;24.65;15.00;;;4.50;99.90;;;;;;5024366;28;20206;-73
2021/01/04 10:50:41;;;;;;;29.13;15.50;;;4.60;99.90;;;;;;5024108;28;20240;-73
2021/01/04 10:53:32;;;;;;;25.30;15.15;;;4.60;99.90;;;;;;5024459;28;20259;-73
2021/01/04 10:56:40;;;;;;;25.50;15.25;;;4.60;99.90;;;;;;5024023;28;20279;-73
2021/01/04 10:59:38;;;;;;;25.83;13.55;;;4.60;99.90;;;;;;5026735;28;20750;-74
2021/01/04 11:02:23;;;;;;;28.27;16.15;;;4.60;99.90;;;;;;5028188;28;20205;-72
2021/01/04 11:05:12;;;;;;;34.13;16.75;;;4.60;99.90;;;;;;5023322;28;20673;-74
2021/01/04 11:08:10;;;;;;;26.25;14.05;;;4.50;99.90;;;;;;5021223;28;20320;-73
2021/01/04 11:10:58;;;;;;;25.20;14.30;;;4.50;99.90;;;;;;5019534;28;20772;-72
2021/01/04 11:13:44;;;;;;;23.67;13.70;;;4.50;99.90;;;;;;5024888;28;20201;-73
2021/01/04 11:16:39;;;;;;;24.10;14.43;;;4.70;99.90;;;;;;5021994;28;20281;-71
2021/01/04 11:19:29;;;;;;;29.73;16.17;;;4.60;99.90;;;;;;5026845;28;20206;-72
2021/01/04 11:22:25;;;;;;;24.05;15.18;;;4.70;99.90;;;;;;5025923;28;20276;-74
2021/01/04 11:25:12;;;;;;;27.65;15.65;;;4.70;99.90;;;;;;5023856;28;20198;-72
2021/01/04 11:27:58;;;;;;;25.73;15.25;;;4.70;99.90;;;;;;5028590;28;20247;-73
2021/01/04 11:30:42;;;;;;;26.48;14.95;;;4.60;99.90;;;;;;5027886;28;20329;-73
2021/01/04 11:33:28;;;;;;;29.45;16.52;;;4.70;99.90;;;;;;5023253;28;20642;-73
2021/01/04 11:36:13;;;;;;;31.25;15.10;;;4.70;99.90;;;;;;5022639;28;20281;-72
2021/01/04 11:38:58;;;;;;;26.90;15.18;;;4.70;99.90;;;;;;5026950;28;20232;-72
2021/01/04 11:41:44;;;;;;;31.33;17.58;;;4.70;99.90;;;;;;5032161;28;20221;-73
2021/01/04 11:44:30;;;;;;;25.55;15.80;;;4.70;99.90;;;;;;5026063;28;20206;-73
2021/01/04 11:47:14;;;;;;;28.80;15.80;;;4.70;99.90;;;;;;5024568;28;20291;-73
2021/01/04 11:49:59;;;;;;;28.52;16.48;;;4.70;99.90;;;;;;5022385;28;20221;-71
2021/01/04 11:52:45;;;;;;;32.15;17.67;;;4.70;99.90;;;;;;5026113;28;22793;-73
2021/01/04 11:55:31;;;;;;;32.20;16.25;;;4.60;99.90;;;;;;5027578;28;20216;-73
2021/01/04 11:58:18;;;;;;;33.50;16.90;;;4.60;99.90;;;;;;5030103;28;20210;-72
2021/01/04 12:01:03;;;;;;;33.35;17.35;;;4.50;99.90;;;;;;5025362;28;20331;-73
2021/01/04 12:03:48;;;;;;;26.70;14.60;;;4.60;99.90;;;;;;5023409;28;20572;-73
2021/01/04 12:06:33;;;;;;;26.63;15.43;;;4.50;99.90;;;;;;5024607;28;20416;-73
2021/01/04 12:09:19;;;;;;;25.58;16.45;;;4.60;99.90;;;;;;5026541;28;20550;-73
2021/01/04 12:12:05;;;;;;;30.08;16.00;;;4.60;99.90;;;;;;5027386;28;20210;-73
2021/01/04 12:14:51;;;;;;;26.80;15.73;;;4.50;99.90;;;;;;5021683;28;20461;-71
2021/01/04 12:17:36;;;;;;;29.40;16.15;;;4.50;99.90;;;;;;5026179;28;20240;-72
2021/01/04 12:20:21;;;;;;;23.30;14.80;;;4.50;99.90;;;;;;5023152;28;20779;-72
2021/01/04 12:23:06;;;;;;;32.60;16.88;;;4.60;99.90;;;;;;5026520;28;20619;-72
2021/01/04 12:25:52;;;;;;;28.63;15.55;;;4.60;99.90;;;;;;5028159;28;20222;-72
2021/01/04 12:28:37;;;;;;;27.83;16.67;;;4.60;99.90;;;;;;5019550;28;20580;-72
2021/01/04 12:31:23;;;;;;;32.58;16.70;;;4.60;99.90;;;;;;5026110;28;20249;-72
2021/01/04 12:34:08;;;;;;;29.63;16.98;;;4.60;99.90;;;;;;5015801;28;20205;-72
2021/01/04 12:36:53;;;;;;;27.38;16.63;;;4.70;99.90;;;;;;5024445;28;20676;-70
2021/01/04 12:39:39;;;;;;;34.13;19.50;;;4.60;99.90;;;;;;5027366;28;20621;-70
2021/01/04 12:42:24;;;;;;;39.22;19.60;;;4.50;99.90;;;;;;5028252;28;20294;-71
2021/01/04 12:45:10;;;;;;;32.63;17.73;;;4.50;99.90;;;;;;5026222;28;20248;-71
2021/01/04 12:47:56;;;;;;;29.80;18.08;;;4.60;99.90;;;;;;5019218;28;20282;-72
2021/01/04 12:50:41;;;;;;;27.67;16.33;;;4.70;99.90;;;;;;5027744;28;20225;-72
2021/01/04 12:53:26;;;;;;;32.38;17.88;;;4.70;99.90;;;;;;5022302;28;20693;-72
2021/01/04 12:56:16;;;;;;;31.13;17.02;;;4.70;99.90;;;;;;5024077;28;20292;-72
2021/01/04 12:59:06;;;;;;;30.42;18.90;;;4.70;99.90;;;;;;5019414;28;20229;-72
2021/01/04 13:01:52;;;;;;;24.83;14.95;;;4.60;99.90;;;;;;5021377;28;20720;-72
2021/01/04 13:04:42;;;;;;;29.08;17.17;;;4.60;99.90;;;;;;5024906;28;20791;-72
2021/01/04 13:07:29;;;;;;;28.90;18.13;;;4.60;99.90;;;;;;5022788;28;20233;-73
2021/01/04 13:10:15;;;;;;;29.70;17.33;;;4.70;99.90;;;;;;5023462;28;20787;-72
2021/01/04 13:13:00;;;;;;;29.95;17.48;;;4.60;99.90;;;;;;5019799;28;20871;-73
2021/01/04 13:15:45;;;;;;;31.42;19.13;;;4.60;99.90;;;;;;5016599;28;20282;-73
2021/01/04 13:18:30;;;;;;;29.13;16.65;;;4.60;99.90;;;;;;5022377;28;20213;-72
2021/01/04 13:21:18;;;;;;;29.83;17.98;;;4.60;99.90;;;;;;5020911;28;20236;-73
2021/01/04 13:24:05;;;;;;;28.67;18.55;;;4.70;99.90;;;;;;5021644;28;20209;-71
2021/01/04 13:26:53;;;;;;;27.63;17.52;;;4.70;99.90;;;;;;5022273;28;20229;-70
2021/01/04 13:29:37;;;;;;;29.08;18.08;;;4.70;99.90;;;;;;5021038;28;20213;-70
2021/01/04 13:32:22;;;;;;;27.48;17.33;;;4.60;99.90;;;;;;5019306;28;20772;-70
2021/01/04 13:35:09;;;;;;;30.52;17.42;;;4.60;99.90;;;;;;5023119;28;20251;-70
2021/01/04 13:37:55;;;;;;;31.90;17.85;;;4.60;99.90;;;;;;5021710;28;20282;-70
2021/01/04 13:40:40;;;;;;;27.80;17.90;;;4.70;99.90;;;;;;5020995;28;20312;-73
2021/01/04 13:43:25;;;;;;;30.02;17.20;;;4.60;99.90;;;;;;5020579;28;20284;-71
2021/01/04 13:46:11;;;;;;;22.70;15.10;;;4.60;99.90;;;;;;5028298;28;20708;-71
2021/01/04 13:48:56;;;;;;;28.50;15.00;;;4.60;99.90;;;;;;5022365;28;20696;-72
2021/01/04 13:51:45;;;;;;;25.77;16.30;;;4.50;99.90;;;;;;5022687;28;20225;-73
2021/01/04 13:54:31;;;;;;;28.90;17.42;;;4.50;99.90;;;;;;5021266;28;20677;-73
2021/01/04 13:57:16;;;;;;;23.90;16.60;;;4.60;99.90;;;;;;5021615;28;20232;-73
2021/01/04 14:00:02;;;;;;;27.52;16.50;;;4.70;99.90;;;;;;5023867;28;20700;-71
2021/01/04 14:02:47;;;;;;;25.20;16.08;;;4.60;99.90;;;;;;5019505;28;20256;-72
2021/01/04 14:05:32;;;;;;;19.25;13.82;;;4.50;99.90;;;;;;5015824;28;20329;-72
2021/01/04 14:08:17;;;;;;;24.25;16.23;;;4.50;99.90;;;;;;5022832;28;20419;-72
2021/01/04 14:11:03;;;;;;;24.20;15.55;;;4.50;99.90;;;;;;5021286;28;20229;-72
2021/01/04 14:13:49;;;;;;;21.42;12.20;;;4.60;99.90;;;;;;5023199;28;20288;-73
2021/01/04 14:16:34;;;;;;;27.60;14.88;;;4.60;99.90;;;;;;5018953;28;20228;-71
2021/01/04 14:19:20;;;;;;;25.65;14.32;;;4.60;99.90;;;;;;5015645;28;20213;-70
2021/01/04 14:22:05;;;;;;;21.90;14.10;;;4.60;99.90;;;;;;5020384;28;20680;-71
2021/01/04 14:24:50;;;;;;;20.23;12.77;;;4.60;99.90;;;;;;5024710;28;20198;-70
2021/01/04 14:27:37;;;;;;;21.70;13.23;;;4.50;99.90;;;;;;5025734;28;20221;-72
2021/01/04 14:30:23;;;;;;;21.33;13.70;;;4.50;99.90;;;;;;5021071;28;20229;-71
2021/01/04 14:33:08;;;;;;;27.23;14.52;;;4.50;99.90;;;;;;5016734;28;20252;-72
2021/01/04 14:35:54;;;;;;;23.55;14.35;;;4.50;99.90;;;;;;5023303;28;20205;-74
2021/01/04 14:38:39;;;;;;;21.58;13.73;;;4.50;99.90;;;;;;5026795;28;20256;-74
2021/01/04 14:41:24;;;;;;;53.78;15.20;;;4.50;99.90;;;;;;5023594;28;20280;-72
2021/01/04 14:44:14;;;;;;;23.77;14.90;;;4.50;99.90;;;;;;5019059;28;20199;-72
2021/01/04 14:46:59;;;;;;;18.92;12.82;;;4.60;99.90;;;;;;5022175;28;20349;-73
2021/01/04 14:49:46;;;;;;;20.27;13.02;;;4.60;99.90;;;;;;5020197;28;20240;-74
2021/01/04 14:52:31;;;;;;;24.45;13.38;;;4.60;99.90;;;;;;5023368;28;20300;-72